Terminal Aerodrome Forecast
Issued by NWS Tulsa, OK

Home | Current Version | Previous Version | Text Only | Print | Product List | Glossary On
Versions: 1 2 3 4 5 6 7 8 9 10 11 12 13 14 15 16
000
FTUS44 KTSA 272300
TAFFSM
TAF
KFSM 272323Z 2800/2824 29009KT P6SM -RA BKN014 OVC026
      TEMPO 2800/2802 4SM -RASNPL
     FM280200 33006KT P6SM BKN015
     FM280700 32006KT P6SM BKN100
     FM281200 VRB04KT P6SM BKN250=

USA.gov is the U.S. government's official web portal to all federal, state and local government web resources and services.